createdAt,value
2023-04-29T00:02:56.221Z,22.79
2023-04-29T00:07:59.205Z,22.78
2023-04-29T00:13:03.427Z,22.78
2023-04-29T00:18:06.313Z,22.75
2023-04-29T00:23:09.149Z,22.75
2023-04-29T00:28:13.609Z,22.76
2023-04-29T00:33:16.466Z,22.74
2023-04-29T00:38:19.532Z,22.73
2023-04-29T00:43:24.321Z,22.72
2023-04-29T00:48:27.582Z,22.70
2023-04-29T00:53:30.859Z,22.69
2023-04-29T00:58:35.955Z,22.69
2023-04-29T01:03:39.405Z,22.71
2023-04-29T01:08:52.270Z,22.70
2023-04-29T01:14:00.321Z,22.68
2023-04-29T01:19:04.377Z,22.68
2023-04-29T01:24:08.632Z,22.67
2023-04-29T01:29:24.859Z,22.67
2023-04-29T01:34:33.306Z,22.64
2023-04-29T01:39:45.701Z,22.63
2023-04-29T01:44:50.042Z,22.63
2023-04-29T01:49:53.046Z,22.63
2023-04-29T01:54:57.553Z,22.63
2023-04-29T02:00:00.874Z,22.63
2023-04-29T02:05:03.688Z,22.62
2023-04-29T02:10:08.973Z,22.62
2023-04-29T02:15:12.109Z,22.61
2023-04-29T02:20:15.129Z,22.60
2023-04-29T02:25:19.440Z,22.60
2023-04-29T02:30:22.336Z,22.60
2023-04-29T02:35:25.318Z,22.58
2023-04-29T02:40:29.518Z,22.57
2023-04-29T02:45:32.403Z,22.56
2023-04-29T02:50:35.591Z,22.56
2023-04-29T02:55:39.868Z,22.53
2023-04-29T03:00:42.937Z,22.52
2023-04-29T03:05:45.823Z,22.53
2023-04-29T03:10:49.983Z,22.52
2023-04-29T03:15:52.854Z,22.51
2023-04-29T03:20:55.709Z,22.51
2023-04-29T03:26:00.716Z,22.49
2023-04-29T03:31:04.423Z,22.49
2023-04-29T03:36:08.687Z,22.48
2023-04-29T03:41:13.068Z,22.46
2023-04-29T03:46:16.021Z,22.44
2023-04-29T03:51:18.895Z,22.42
2023-04-29T03:56:25.348Z,22.41
2023-04-29T04:01:28.989Z,22.40
2023-04-29T04:06:33.461Z,22.40
2023-04-29T04:11:37.645Z,22.39
2023-04-29T04:16:40.562Z,22.36
2023-04-29T04:21:43.465Z,22.35
2023-04-29T04:26:47.587Z,22.34
2023-04-29T04:31:50.591Z,22.34
2023-04-29T04:36:53.447Z,22.33
2023-04-29T04:41:57.722Z,22.35
2023-04-29T04:47:02.270Z,22.34
2023-04-29T04:52:05.523Z,22.33
2023-04-29T04:57:09.637Z,22.34
2023-04-29T05:02:12.537Z,22.33
2023-04-29T05:07:15.485Z,22.33
2023-04-29T05:12:19.661Z,22.30
2023-04-29T05:17:23.044Z,22.29
2023-04-29T05:22:26.170Z,22.30
2023-04-29T05:27:30.430Z,22.29
2023-04-29T05:32:33.447Z,22.29
2023-04-29T05:37:36.669Z,22.29
2023-04-29T05:42:40.794Z,22.28
2023-04-29T05:47:43.661Z,22.26
2023-04-29T05:52:46.510Z,22.24
2023-04-29T05:57:50.624Z,22.23
2023-04-29T06:02:58.716Z,22.23
2023-04-29T06:08:02.348Z,22.21
2023-04-29T06:13:06.482Z,22.21
2023-04-29T06:18:09.304Z,22.21
2023-04-29T06:23:12.851Z,22.21
2023-04-29T06:28:17.553Z,22.19
2023-04-29T06:33:21.191Z,22.19
2023-04-29T06:38:24.337Z,22.18
2023-04-29T06:43:28.571Z,22.20
2023-04-29T06:48:31.805Z,22.20
2023-04-29T06:53:34.602Z,22.19
2023-04-29T06:58:39.488Z,22.20
2023-04-29T07:03:43.899Z,22.20
2023-04-29T07:08:47.063Z,22.20
2023-04-29T07:13:51.274Z,22.20
2023-04-29T07:18:54.698Z,22.21
2023-04-29T07:23:59.265Z,22.22
2023-04-29T07:29:03.443Z,22.26
2023-04-29T07:34:06.394Z,22.29
2023-04-29T07:39:09.356Z,22.31
2023-04-29T07:44:13.701Z,22.32
2023-04-29T07:49:16.813Z,22.33
2023-04-29T07:54:19.758Z,22.33
2023-04-29T07:59:24.168Z,22.33
2023-04-29T08:04:27.282Z,22.33
2023-04-29T08:09:30.580Z,22.34
2023-04-29T08:14:34.794Z,22.35
2023-04-29T08:19:37.929Z,22.35
2023-04-29T08:24:42.754Z,22.38
2023-04-29T08:29:47.376Z,22.39
2023-04-29T08:34:50.474Z,22.43
2023-04-29T08:39:53.296Z,22.46
2023-04-29T08:44:57.641Z,22.48
2023-04-29T08:50:03.999Z,22.49
2023-04-29T08:55:08.052Z,22.56
2023-04-29T09:00:13.306Z,22.60
2023-04-29T09:05:16.511Z,22.61
2023-04-29T09:10:19.835Z,22.59
2023-04-29T09:15:24.052Z,22.58
2023-04-29T09:20:28.412Z,22.55
2023-04-29T09:25:31.589Z,22.57
2023-04-29T09:30:47.054Z,22.63
2023-04-29T09:35:50.017Z,22.65
2023-04-29T09:40:59.421Z,22.66
2023-04-29T09:46:04.212Z,22.65
2023-04-29T09:51:07.251Z,22.67
2023-04-29T09:56:10.122Z,22.71
2023-04-29T10:01:18.032Z,22.76
2023-04-29T10:06:21.402Z,22.81
2023-04-29T10:11:24.508Z,22.85
2023-04-29T10:16:31.279Z,22.85
2023-04-29T10:21:34.850Z,22.87
2023-04-29T10:26:40.591Z,22.85
2023-04-29T10:31:45.762Z,22.85
2023-04-29T10:36:49.436Z,22.85
2023-04-29T10:41:52.678Z,22.82
2023-04-29T10:47:23.925Z,22.81
2023-04-29T10:52:28.801Z,22.81
2023-04-29T10:57:31.619Z,22.76
2023-04-29T11:02:35.924Z,22.75
2023-04-29T11:07:38.832Z,22.76
2023-04-29T11:12:41.656Z,22.73
2023-04-29T11:17:47.937Z,22.73
2023-04-29T11:22:53.290Z,22.77
2023-04-29T11:27:56.836Z,22.80
2023-04-29T11:33:01.707Z,22.79
2023-04-29T11:38:05.777Z,22.88
2023-04-29T11:43:09.714Z,22.93
2023-04-29T11:48:19.384Z,22.95
2023-04-29T11:53:22.956Z,22.99
2023-04-29T11:58:25.989Z,22.99
2023-04-29T12:03:30.254Z,23.01
2023-04-29T12:08:34.843Z,23.01
2023-04-29T12:13:37.710Z,23.05
2023-04-29T12:18:41.921Z,23.05
2023-04-29T12:23:45.323Z,23.09
2023-04-29T12:28:50.388Z,23.14
2023-04-29T12:33:57.530Z,23.17
2023-04-29T12:39:00.433Z,23.21
2023-04-29T12:44:04.189Z,23.22
2023-04-29T12:49:09.132Z,23.22
2023-04-29T12:54:12.125Z,23.24
2023-04-29T12:59:15.002Z,23.22
2023-04-29T13:04:19.227Z,23.19
2023-04-29T13:09:22.081Z,23.17
2023-04-29T13:14:25.092Z,23.16
2023-04-29T13:19:44.042Z,23.16
2023-04-29T13:24:50.839Z,23.14
2023-04-29T13:29:53.672Z,23.12
2023-04-29T13:34:57.865Z,23.07
2023-04-29T13:40:01.909Z,23.07
2023-04-29T13:45:05.911Z,23.06
2023-04-29T13:50:56.842Z,23.07
2023-04-29T14:05:47.574Z,23.13
2023-04-29T14:10:50.602Z,23.21
2023-04-29T14:15:54.369Z,23.28
2023-04-29T14:20:59.590Z,23.29
2023-04-29T14:26:22.288Z,23.27
2023-04-29T14:31:25.614Z,23.28
2023-04-29T14:36:29.792Z,23.28
2023-04-29T14:41:32.631Z,23.31
2023-04-29T14:46:35.571Z,23.28
2023-04-29T14:51:39.733Z,23.24
2023-04-29T14:56:42.669Z,23.18
2023-04-29T15:01:45.536Z,23.14
2023-04-29T15:06:50.256Z,23.11
2023-04-29T15:11:53.083Z,23.10
2023-04-29T15:16:56.079Z,23.09
2023-04-29T15:22:00.293Z,23.10
2023-04-29T15:27:03.350Z,23.17
2023-04-29T15:32:06.848Z,23.30
2023-04-29T15:37:11.018Z,23.22
2023-04-29T15:42:13.859Z,23.18
2023-04-29T15:47:16.776Z,23.10
2023-04-29T15:52:20.912Z,23.07
2023-04-29T15:57:23.756Z,23.06
2023-04-29T16:02:26.654Z,23.04
2023-04-29T16:07:31.122Z,23.03
2023-04-29T16:12:33.971Z,23.04
2023-04-29T16:17:36.979Z,23.18
2023-04-29T16:22:41.470Z,23.41
2023-04-29T16:27:44.337Z,24.71
2023-04-29T16:32:47.888Z,24.16
2023-04-29T16:37:54.213Z,25.86
2023-04-29T16:42:57.812Z,26.96
2023-04-29T16:48:01.601Z,26.44
2023-04-29T16:53:05.975Z,27.16
2023-04-29T16:58:09.317Z,25.68
2023-04-29T17:03:12.934Z,25.18
2023-04-29T17:08:17.368Z,25.15
2023-04-29T17:13:20.878Z,24.62
2023-04-29T17:18:23.837Z,24.38
2023-04-29T17:23:28.040Z,24.33
2023-04-29T17:28:30.966Z,24.58
2023-04-29T17:33:35.432Z,25.30
2023-04-29T17:38:40.922Z,25.21
2023-04-29T17:43:43.747Z,24.47
2023-04-29T17:48:46.957Z,24.21
2023-04-29T17:58:54.022Z,23.96
2023-04-29T18:03:56.896Z,23.88
2023-04-29T18:09:01.101Z,23.81
2023-04-29T18:14:04.808Z,23.72
2023-04-29T18:19:07.677Z,23.66
2023-04-29T18:24:11.849Z,23.60
2023-04-29T18:29:14.675Z,23.56
2023-04-29T18:34:17.553Z,23.50
2023-04-29T18:39:21.738Z,23.44
2023-04-29T18:44:26.102Z,23.40
2023-04-29T18:49:30.240Z,23.35
2023-04-29T18:54:34.600Z,23.30
2023-04-29T18:59:38.060Z,23.26
2023-04-29T19:04:41.100Z,23.24
2023-04-29T19:09:45.335Z,23.19
2023-04-29T19:14:48.198Z,23.15
2023-04-29T19:19:51.049Z,23.11
2023-04-29T19:24:55.729Z,23.05
2023-04-29T19:29:58.573Z,23.05
2023-04-29T19:35:01.360Z,23.01
2023-04-29T19:40:06.597Z,22.99
2023-04-29T19:45:10.295Z,22.97
2023-04-29T19:50:13.131Z,22.92
2023-04-29T19:55:17.614Z,22.91
2023-04-29T20:00:20.580Z,22.88
2023-04-29T20:05:23.490Z,22.83
2023-04-29T20:10:29.931Z,22.81
2023-04-29T20:15:33.019Z,22.73
2023-04-29T20:20:35.869Z,22.73
2023-04-29T20:25:40.067Z,22.68
2023-04-29T20:30:42.922Z,22.64
2023-04-29T20:35:45.813Z,22.59
2023-04-29T20:40:53.512Z,22.57
2023-04-29T20:45:58.244Z,22.54
2023-04-29T20:51:01.080Z,22.56
2023-04-29T20:56:05.501Z,22.51
2023-04-29T21:01:08.971Z,22.49
2023-04-29T21:06:11.808Z,22.46
2023-04-29T21:11:15.966Z,22.41
2023-04-29T21:16:19.041Z,22.40
2023-04-29T21:21:23.158Z,22.39
2023-04-29T21:26:27.322Z,22.35
2023-04-29T21:31:30.923Z,22.32
2023-04-29T21:36:33.855Z,22.31
2023-04-29T21:41:39.861Z,22.29
2023-04-29T21:46:42.684Z,22.27
2023-04-29T21:51:45.679Z,22.25
2023-04-29T21:56:49.856Z,22.21
2023-04-29T22:02:00.115Z,22.19
2023-04-29T22:07:03.214Z,22.19
2023-04-29T22:12:07.461Z,22.15
2023-04-29T22:17:10.881Z,22.06
2023-04-29T22:22:13.684Z,22.02
2023-04-29T22:27:17.817Z,22.00
2023-04-29T22:32:20.752Z,22.00
2023-04-29T22:37:23.618Z,21.96
2023-04-29T22:42:27.748Z,21.93
2023-04-29T22:47:31.160Z,21.88
2023-04-29T22:52:33.996Z,21.89
2023-04-29T22:57:38.238Z,21.90
2023-04-29T23:02:41.258Z,21.90
2023-04-29T23:07:44.058Z,21.83
2023-04-29T23:12:48.221Z,21.80
2023-04-29T23:17:51.159Z,21.78
2023-04-29T23:22:54.047Z,21.78
2023-04-29T23:27:58.238Z,21.78
2023-04-29T23:33:01.176Z,21.74
2023-04-29T23:38:04.059Z,21.75
2023-04-29T23:43:08.237Z,21.74
2023-04-29T23:48:12.087Z,21.70
2023-04-29T23:53:15.733Z,21.67
2023-04-29T23:58:20.011Z,21.66
